Osaka Car — 9V2190 — position and weather

sailwx.info

Track history (hours):
 
Tides and Currents Weather Stations Pressure Air Temp Water Temp Dewpoint Dewpoint Depression Visibility Wind Speed Wind Dir Waves Ship Positions

Osaka Car

Last reported at 2017-Dec-31 16:43 UTC. Time now 2018-Jan-18 21:33 UTC.
Position N 41°39' E 141°45'.
Warning: this ship's position is 18 days out of date.

Length 183 m; draft 8.5 m.

Type: Other ship. MMSI: 566997000.

Date/timePositionNaut miles runAvg speedWind from/ knotsBaromVisibWave heightAir tempDewpointWater temp
2017-Dec-31 16:43N 41°39' E 141°45'315.6
2017-Dec-31 16:30N 41°38' E 141°40'1016.5
2017-Dec-31 15:55N 41°39' E 141°27'615.7
2017-Dec-31 15:30N 41°39' E 141°19'816.7
2017-Dec-31 15:00N 41°39' E 141°08'918.4
2017-Dec-31 14:31N 41°38' E 140°55'918.6
2017-Dec-31 14:00N 41°33' E 140°45'917.7
2017-Dec-31 13:30N 41°29' E 140°34'917.5
2017-Dec-31 13:00N 41°24' E 140°25'918.5
2017-Dec-31 12:30N 41°19' E 140°14'  
2017-Dec-27 00:29N 31°02' E 122°33'711.3
2017-Dec-26 23:49N 31°05' E 122°25'414.0
2017-Dec-26 23:30N 31°06' E 122°20'714.5
2017-Dec-26 23:00N 31°10' E 122°12'714.8
2017-Dec-26 22:30N 31°14' E 122°05'814.5
2017-Dec-26 21:58N 31°15' E 121°56'613.6
2017-Dec-26 21:30N 31°17' E 121°49'7 0.3
2017-Dec-25 17:00N 31°20' E 121°41'4 7.1
2017-Dec-25 16:22N 31°18' E 121°46'  
Track history (hours):
 
Tides and Currents Weather Stations Pressure Air Temp Water Temp Dewpoint Dewpoint Depression Visibility Wind Speed Wind Dir Waves Ship Positions

Osaka Car

Last reported at 2017-Dec-31 16:43 UTC. Time now 2018-Jan-18 21:33 UTC.
Position N 41°39' E 141°45'.
Warning: this ship's position is 18 days out of date.

Length 183 m; draft 8.5 m.

Type: Other ship. MMSI: 566997000.

Date/timePositionNaut miles runAvg speedWind from/ knotsBaromVisibWave heightAir tempDewpointWater temp
2017-Dec-31 16:43N 41°39' E 141°45'315.6
2017-Dec-31 16:30N 41°38' E 141°40'1016.5
2017-Dec-31 15:55N 41°39' E 141°27'615.7
2017-Dec-31 15:30N 41°39' E 141°19'816.7
2017-Dec-31 15:00N 41°39' E 141°08'918.4
2017-Dec-31 14:31N 41°38' E 140°55'918.6
2017-Dec-31 14:00N 41°33' E 140°45'917.7
2017-Dec-31 13:30N 41°29' E 140°34'917.5
2017-Dec-31 13:00N 41°24' E 140°25'918.5
2017-Dec-31 12:30N 41°19' E 140°14'  
2017-Dec-27 00:29N 31°02' E 122°33'711.3
2017-Dec-26 23:49N 31°05' E 122°25'414.0
2017-Dec-26 23:30N 31°06' E 122°20'714.5
2017-Dec-26 23:00N 31°10' E 122°12'714.8
2017-Dec-26 22:30N 31°14' E 122°05'814.5
2017-Dec-26 21:58N 31°15' E 121°56'613.6
2017-Dec-26 21:30N 31°17' E 121°49'7 0.3
2017-Dec-25 17:00N 31°20' E 121°41'4 7.1
2017-Dec-25 16:22N 31°18' E 121°46'  

Dump ship's entire track history